UKKK/IEV METAR and TAF weather

Enter ICAO airport designator
Station Type Date Time Source
UKKK METAR 2019/06/16 13:00 UTC NOAA

UKKK 161300Z 02005MPS 340V070 CAVOK 31/16 Q1014 R08/110060 NOSIG


Station Type Date Time Source
UKKK Decoded METAR 2019/06/16 13:00 UTC NOAA

Kyiv, Ukraine (UKKK) 50-24N 030-34E 167M
Jun 16, 2019 - 09:00 AM EDT / 2019.06.16 1300 UTC
Wind: from the NNE (020 degrees) at 11 MPH (10 KT) (direction variable):0
Visibility: greater than 7 mile(s):0
Temperature: 87 F (31 C)
Dew Point: 60 F (16 C)
Relative Humidity: 40%
Pressure (altimeter): 29.94 in. Hg (1014 hPa)
ob: UKKK 161300Z 02005MPS 340V070 CAVOK 31/16 Q1014 R08/110060 NOSIG
cycle: 13

Station Type Date Time Source
UKKK TAF 2019/06/16 12:09 UTC NOAA

TAF TAF UKKK 161103Z 1612/1712 07003MPS 9999 SCT030 TX30/1612Z TN17/1703Z
TEMPO 1612/1618 10006G12MPS SCT020CB PROB40
TEMPO 1612/1618 VRB08G14MPS 2100 -TSRA SCT007 BKN020CB
TEMPO 1618/1704 VRB01MPS
BECMG 1704/1705 18004G09MPS

Example: see airport list